createdAt,value
2018-10-07T00:02:12.433Z,68.90
2018-10-07T00:04:48.045Z,65.52
2018-10-07T00:07:23.601Z,81.53
2018-10-07T00:09:59.044Z,88.22
2018-10-07T00:12:34.540Z,73.85
2018-10-07T00:15:10.238Z,84.87
2018-10-07T00:17:45.673Z,83.30
2018-10-07T00:20:21.505Z,79.17
2018-10-07T00:22:56.996Z,80.47
2018-10-07T00:25:32.544Z,96.72
2018-10-07T00:28:08.030Z,90.22
2018-10-07T00:30:43.584Z,102.22
2018-10-07T00:33:18.961Z,88.15
2018-10-07T00:35:54.440Z,96.60
2018-10-07T00:38:29.845Z,81.17
2018-10-07T00:41:05.354Z,89.10
2018-10-07T00:43:40.869Z,100.12
2018-10-07T00:46:16.304Z,79.40
2018-10-07T00:48:51.764Z,82.88
2018-10-07T00:51:27.305Z,85.53
2018-10-07T00:54:02.727Z,70.62
2018-10-07T00:56:38.219Z,54.03
2018-10-07T00:59:13.627Z,45.23
2018-10-07T01:01:49.203Z,42.43
2018-10-07T01:04:24.509Z,41.80
2018-10-07T01:06:59.893Z,32.35
2018-10-07T01:09:35.412Z,33.02
2018-10-07T01:12:11.037Z,35.50
2018-10-07T01:14:46.692Z,50.35
2018-10-07T01:17:22.148Z,29.45
2018-10-07T01:19:57.557Z,29.20
2018-10-07T01:22:33.037Z,28.40
2018-10-07T01:25:08.371Z,24.45
2018-10-07T01:27:44.021Z,40.23
2018-10-07T01:30:22.391Z,30.37
2018-10-07T01:32:57.896Z,36.77
2018-10-07T01:35:33.493Z,35.80
2018-10-07T01:38:08.909Z,31.75
2018-10-07T01:40:44.470Z,22.45
2018-10-07T01:43:19.977Z,24.80
2018-10-07T01:45:55.481Z,19.92
2018-10-07T01:48:31.033Z,15.20
2018-10-07T01:51:06.574Z,14.25
2018-10-07T01:53:42.127Z,10.32
2018-10-07T01:56:17.499Z,6.53
2018-10-07T01:58:53.514Z,6.35
2018-10-07T02:01:28.910Z,10.60
2018-10-07T02:04:04.400Z,3.40
2018-10-07T02:06:39.901Z,3.12
2018-10-07T02:09:15.292Z,5.60
2018-10-07T02:11:50.706Z,4.25
2018-10-07T02:14:26.253Z,2.27
2018-10-07T02:17:01.566Z,4.05
2018-10-07T02:19:37.103Z,5.10
2018-10-07T02:22:12.506Z,2.17
2018-10-07T02:24:48.105Z,2.33
2018-10-07T02:27:23.593Z,3.05
2018-10-07T02:29:59.056Z,2.15
2018-10-07T02:32:34.432Z,2.95
2018-10-07T02:35:09.963Z,1.95
2018-10-07T02:37:45.288Z,3.65
2018-10-07T02:40:20.902Z,3.05
2018-10-07T02:42:56.283Z,1.77
2018-10-07T02:45:31.825Z,1.55
2018-10-07T02:48:07.210Z,3.47
2018-10-07T02:50:42.610Z,2.70
2018-10-07T02:53:18.133Z,1.67
2018-10-07T02:55:53.643Z,2.50
2018-10-07T02:58:29.840Z,1.70
2018-10-07T03:01:05.315Z,4.75
2018-10-07T03:03:40.860Z,1.72
2018-10-07T03:06:16.469Z,1.65
2018-10-07T03:08:51.767Z,3.17
2018-10-07T03:11:27.350Z,3.87
2018-10-07T03:14:02.959Z,5.10
2018-10-07T03:16:38.642Z,1.55
2018-10-07T03:19:13.988Z,2.20
2018-10-07T03:21:49.394Z,1.35
2018-10-07T03:24:24.976Z,8.05
2018-10-07T03:27:00.581Z,1.72
2018-10-07T03:29:36.121Z,2.12
2018-10-07T03:32:11.670Z,10.93
2018-10-07T03:34:47.013Z,2.20
2018-10-07T03:37:22.557Z,3.70
2018-10-07T03:39:57.926Z,4.15
2018-10-07T03:42:33.436Z,1.70
2018-10-07T03:45:08.784Z,2.08
2018-10-07T03:47:44.319Z,3.90
2018-10-07T03:50:19.818Z,1.42
2018-10-07T03:52:55.279Z,1.95
2018-10-07T03:55:30.605Z,1.95
2018-10-07T03:58:06.213Z,2.10
2018-10-07T04:00:41.517Z,1.70
2018-10-07T04:03:17.051Z,2.08
2018-10-07T04:05:52.730Z,1.90
2018-10-07T04:08:28.340Z,2.15
2018-10-07T04:11:03.838Z,1.70
2018-10-07T04:13:39.457Z,1.75
2018-10-07T04:16:15.138Z,2.10
2018-10-07T04:18:50.904Z,5.95
2018-10-07T04:21:26.473Z,2.58
2018-10-07T04:24:02.010Z,1.90
2018-10-07T04:26:37.433Z,2.40
2018-10-07T04:29:12.948Z,2.60
2018-10-07T04:31:48.686Z,5.10
2018-10-07T04:34:24.122Z,2.40
2018-10-07T04:36:59.633Z,2.17
2018-10-07T04:39:35.146Z,3.95
2018-10-07T04:42:10.742Z,1.80
2018-10-07T04:44:46.348Z,2.40
2018-10-07T04:47:22.737Z,3.85
2018-10-07T04:49:58.307Z,3.87
2018-10-07T04:52:33.585Z,2.72
2018-10-07T04:55:09.033Z,3.17
2018-10-07T04:57:44.841Z,2.85
2018-10-07T05:00:20.229Z,4.12
2018-10-07T05:02:55.796Z,1.92
2018-10-07T05:05:31.563Z,6.00
2018-10-07T05:08:07.417Z,3.50
2018-10-07T05:10:49.937Z,4.72
2018-10-07T05:13:29.132Z,3.85
2018-10-07T05:16:04.702Z,2.17
2018-10-07T05:18:40.204Z,4.20
2018-10-07T05:21:15.760Z,2.47
2018-10-07T05:23:51.133Z,3.52
2018-10-07T05:26:26.618Z,2.40
2018-10-07T05:29:02.055Z,6.37
2018-10-07T05:31:37.475Z,2.87
2018-10-07T05:34:12.833Z,3.40
2018-10-07T05:36:48.550Z,3.35
2018-10-07T05:39:23.877Z,1.82
2018-10-07T05:41:59.319Z,4.75
2018-10-07T05:44:34.906Z,2.75
2018-10-07T05:47:10.403Z,5.90
2018-10-07T05:49:45.862Z,5.00
2018-10-07T05:52:21.325Z,3.90
2018-10-07T05:54:56.717Z,3.10
2018-10-07T05:57:32.106Z,3.30
2018-10-07T06:00:09.545Z,2.45
2018-10-07T06:02:47.159Z,4.55
2018-10-07T06:05:22.467Z,6.15
2018-10-07T06:07:57.845Z,2.72
2018-10-07T06:10:33.223Z,5.58
2018-10-07T06:13:08.786Z,3.33
2018-10-07T06:15:44.601Z,2.42
2018-10-07T06:18:20.199Z,2.45
2018-10-07T06:20:55.460Z,2.98
2018-10-07T06:23:31.145Z,11.10
2018-10-07T06:26:06.514Z,2.15
2018-10-07T06:28:41.961Z,4.08
2018-10-07T06:31:17.173Z,4.87
2018-10-07T06:33:52.817Z,2.17
2018-10-07T07:20:21.558Z,4.90
2018-10-07T07:22:56.941Z,4.22
2018-10-07T07:25:32.639Z,2.62
2018-10-07T07:28:07.981Z,2.95
2018-10-07T07:30:43.493Z,1.90
2018-10-07T07:33:18.874Z,6.83
2018-10-07T07:35:54.565Z,4.78
2018-10-07T07:38:29.853Z,1.25
2018-10-07T07:41:05.348Z,4.15
2018-10-07T07:43:40.831Z,4.10
2018-10-07T07:46:16.316Z,4.03
2018-10-07T07:48:51.777Z,2.85
2018-10-07T07:51:27.464Z,3.72
2018-10-07T07:54:03.545Z,1.40
2018-10-07T07:56:39.149Z,1.20
2018-10-07T07:59:14.465Z,6.92
2018-10-07T08:01:50.149Z,1.52
2018-10-07T08:04:25.569Z,2.67
2018-10-07T08:07:01.295Z,2.37
2018-10-07T08:09:36.625Z,2.55
2018-10-07T08:12:12.181Z,9.03
2018-10-07T08:14:47.669Z,6.25
2018-10-07T08:17:23.293Z,3.47
2018-10-07T08:19:58.741Z,2.65
2018-10-07T08:22:34.353Z,9.50
2018-10-07T08:25:10.038Z,1.75
2018-10-07T08:27:45.557Z,4.55
2018-10-07T08:30:21.038Z,4.70
2018-10-07T08:32:56.610Z,5.10
2018-10-07T08:35:31.884Z,5.28
2018-10-07T08:38:07.215Z,3.08
2018-10-07T08:40:42.646Z,8.80
2018-10-07T08:43:18.408Z,5.22
2018-10-07T08:45:53.877Z,12.15
2018-10-07T08:48:29.321Z,11.03
2018-10-07T08:51:04.614Z,10.60
2018-10-07T08:53:40.373Z,3.35
2018-10-07T08:56:15.804Z,4.42
2018-10-07T08:58:51.257Z,7.03
2018-10-07T09:01:26.711Z,5.40
2018-10-07T09:04:02.132Z,11.57
2018-10-07T09:06:37.474Z,4.05
2018-10-07T09:09:13.267Z,6.60
2018-10-07T09:11:48.506Z,8.33
2018-10-07T09:14:24.569Z,9.00
2018-10-07T09:16:59.965Z,6.72
2018-10-07T09:19:35.603Z,5.58
2018-10-07T09:22:10.944Z,2.70
2018-10-07T09:24:46.489Z,5.03
2018-10-07T09:27:21.926Z,5.47
2018-10-07T09:29:57.446Z,7.28
2018-10-07T09:32:32.973Z,9.28
2018-10-07T09:35:09.340Z,4.37
2018-10-07T09:37:44.796Z,8.60
2018-10-07T09:40:20.268Z,2.90
2018-10-07T09:42:55.734Z,15.05
2018-10-07T09:45:31.157Z,3.42
2018-10-07T09:48:06.686Z,12.33
2018-10-07T09:50:42.139Z,9.53
2018-10-07T09:53:17.509Z,3.90
2018-10-07T09:55:53.277Z,13.38
2018-10-07T09:58:28.682Z,6.05
2018-10-07T10:01:04.189Z,11.10
2018-10-07T10:03:39.369Z,5.45
2018-10-07T10:06:14.845Z,5.20
2018-10-07T10:08:50.076Z,4.12
2018-10-07T10:11:25.495Z,3.65
2018-10-07T10:14:01.040Z,7.67
2018-10-07T10:16:44.138Z,2.72
2018-10-07T10:19:25.985Z,2.47
2018-10-07T10:22:15.298Z,4.45
2018-10-07T10:25:01.541Z,4.60
2018-10-07T10:27:49.905Z,4.70
2018-10-07T10:30:39.501Z,5.78
2018-10-07T10:33:23.545Z,3.27
2018-10-07T10:36:31.140Z,5.03
2018-10-07T10:39:28.199Z,4.90
2018-10-07T10:42:15.415Z,4.22
2018-10-07T10:44:54.673Z,7.65
2018-10-07T10:47:36.217Z,5.67
2018-10-07T10:50:48.045Z,8.80
2018-10-07T10:53:35.849Z,6.53
2018-10-07T10:56:26.578Z,5.20
2018-10-07T10:59:12.021Z,8.40
2018-10-07T11:04:04.584Z,6.47
2018-10-07T11:06:51.073Z,6.87
2018-10-07T11:10:39.232Z,3.40
2018-10-07T11:15:28.607Z,4.55
2018-10-07T11:19:24.970Z,3.83
2018-10-07T11:22:15.036Z,8.33
2018-10-07T11:27:09.413Z,4.90
2018-10-07T11:30:56.529Z,3.35
2018-10-07T11:34:16.041Z,12.25
2018-10-07T11:37:19.886Z,8.68
2018-10-07T11:41:07.969Z,5.30
2018-10-07T11:43:54.201Z,3.00
2018-10-07T11:46:52.214Z,4.35
2018-10-07T11:49:45.504Z,8.95
2018-10-07T11:52:55.970Z,5.75
2018-10-07T11:55:31.402Z,4.45
2018-10-07T11:58:06.970Z,6.03
2018-10-07T12:00:42.672Z,6.40
2018-10-07T12:03:18.218Z,3.80
2018-10-07T12:05:53.804Z,5.22
2018-10-07T12:08:29.260Z,7.80
2018-10-07T12:11:04.864Z,9.88
2018-10-07T12:13:40.407Z,4.03
2018-10-07T12:16:16.221Z,7.35
2018-10-07T12:18:51.614Z,1.87
2018-10-07T12:21:27.299Z,5.58
2018-10-07T12:24:02.878Z,7.05
2018-10-07T12:26:38.529Z,6.28
2018-10-07T12:29:14.067Z,5.67
2018-10-07T12:31:49.459Z,6.03
2018-10-07T12:34:24.878Z,3.37
2018-10-07T12:37:00.800Z,5.62
2018-10-07T12:39:36.579Z,4.87
2018-10-07T12:42:12.108Z,6.87
2018-10-07T12:44:47.505Z,6.50
2018-10-07T12:47:23.214Z,2.47
2018-10-07T12:49:58.552Z,8.23
2018-10-07T12:52:35.179Z,3.52
2018-10-07T12:55:10.613Z,10.85
2018-10-07T12:57:46.271Z,7.67
2018-10-07T13:00:21.793Z,6.70
2018-10-07T13:02:57.192Z,6.70
2018-10-07T13:05:32.650Z,10.82
2018-10-07T13:08:08.095Z,9.55
2018-10-07T13:10:43.581Z,8.63
2018-10-07T16:50:04.651Z,11.55
2018-10-07T17:21:04.369Z,14.85
2018-10-07T17:23:39.821Z,15.00
2018-10-07T17:26:15.361Z,11.22
2018-10-07T17:28:51.042Z,12.53
2018-10-07T17:31:26.581Z,17.20
2018-10-07T17:34:02.374Z,11.05
2018-10-07T17:36:37.980Z,8.88
2018-10-07T17:39:13.903Z,29.63
2018-10-07T17:41:49.297Z,20.55
2018-10-07T17:44:24.993Z,8.23
2018-10-07T17:47:00.237Z,23.40
2018-10-07T17:54:45.194Z,16.12
2018-10-07T17:57:20.738Z,13.08
2018-10-07T17:59:56.214Z,16.62
2018-10-07T18:02:31.497Z,14.70
2018-10-07T18:05:08.024Z,22.62
2018-10-07T18:07:43.501Z,24.02
2018-10-07T18:10:19.254Z,25.30
2018-10-07T18:12:54.735Z,13.25
2018-10-07T18:15:30.354Z,14.98
2018-10-07T18:18:06.299Z,29.00
2018-10-07T18:20:41.928Z,34.70
2018-10-07T18:23:17.394Z,36.05
2018-10-07T18:25:52.908Z,42.30
2018-10-07T18:28:28.393Z,34.67
2018-10-07T18:31:04.044Z,36.20
2018-10-07T18:33:39.513Z,21.48
2018-10-07T18:36:15.060Z,38.88
2018-10-07T18:38:50.702Z,36.33
2018-10-07T18:41:26.397Z,38.08
2018-10-07T18:44:02.003Z,41.90
2018-10-07T18:46:37.421Z,48.85
2018-10-07T18:49:13.150Z,25.57
2018-10-07T18:51:48.641Z,36.03
2018-10-07T18:54:24.090Z,34.18
2018-10-07T18:56:59.651Z,27.65
2018-10-07T18:59:35.061Z,18.87
2018-10-07T19:02:10.809Z,33.13
2018-10-07T19:04:46.256Z,28.35
2018-10-07T19:07:21.792Z,55.23
2018-10-07T19:09:57.293Z,60.40
2018-10-07T19:12:32.689Z,50.85
2018-10-07T19:15:08.217Z,23.95
2018-10-07T19:17:43.972Z,52.73
2018-10-07T19:20:19.320Z,56.10
2018-10-07T19:22:54.786Z,31.02
2018-10-07T19:25:30.162Z,53.75
2018-10-07T19:28:06.381Z,20.10
2018-10-07T19:30:41.841Z,29.30
2018-10-07T19:33:17.523Z,25.02
2018-10-07T19:35:53.013Z,22.50
2018-10-07T19:38:28.445Z,26.00
2018-10-07T19:41:03.749Z,21.68
2018-10-07T19:43:39.320Z,61.30
2018-10-07T19:46:14.789Z,22.35
2018-10-07T19:48:50.237Z,38.53
2018-10-07T19:51:25.979Z,47.60
2018-10-07T19:54:01.684Z,44.50
2018-10-07T19:56:36.929Z,62.70
2018-10-07T19:59:12.549Z,33.60
2018-10-07T20:01:47.962Z,54.53
2018-10-07T20:04:23.585Z,64.00
2018-10-07T20:06:59.035Z,73.15
2018-10-07T20:09:34.487Z,92.50
2018-10-07T20:12:09.837Z,58.15
2018-10-07T20:14:45.208Z,44.08
2018-10-07T20:17:20.546Z,58.15
2018-10-07T20:19:56.165Z,52.93
2018-10-07T20:22:31.641Z,55.58
2018-10-07T20:25:07.113Z,62.65
2018-10-07T20:27:42.555Z,63.52
2018-10-07T20:30:18.050Z,53.23
2018-10-07T20:32:53.433Z,44.77
2018-10-07T20:35:29.035Z,76.60
2018-10-07T20:38:04.349Z,93.42
2018-10-07T20:40:40.018Z,78.12
2018-10-07T20:43:15.248Z,40.45
2018-10-07T20:45:50.755Z,82.57
2018-10-07T20:48:26.210Z,75.80
2018-10-07T20:51:01.843Z,67.67
2018-10-07T20:53:37.372Z,67.75
2018-10-07T20:56:12.717Z,18.92
2018-10-07T20:58:47.935Z,56.83
2018-10-07T21:01:24.419Z,71.05
2018-10-07T21:03:59.670Z,63.20
2018-10-07T21:06:35.509Z,57.30
2018-10-07T21:09:12.273Z,73.15
2018-10-07T21:11:47.799Z,55.90
2018-10-07T21:14:23.285Z,94.70
2018-10-07T21:16:58.996Z,72.78
2018-10-07T21:19:34.510Z,79.07
2018-10-07T21:22:10.001Z,67.45
2018-10-07T21:24:45.389Z,78.07
2018-10-07T21:27:21.149Z,78.40
2018-10-07T21:29:56.486Z,27.27
2018-10-07T21:32:32.244Z,65.90
2018-10-07T21:35:07.679Z,36.28
2018-10-07T21:37:43.250Z,43.38
2018-10-07T21:40:18.682Z,56.10
2018-10-07T21:42:54.066Z,77.10
2018-10-07T21:45:29.601Z,81.78
2018-10-07T21:48:05.266Z,64.32
2018-10-07T21:50:40.949Z,37.13
2018-10-07T21:53:16.696Z,68.10
2018-10-07T21:55:52.040Z,54.53
2018-10-07T21:58:27.722Z,56.98
2018-10-07T22:01:03.212Z,27.40
2018-10-07T22:03:38.889Z,52.53
2018-10-07T22:06:14.362Z,67.87
2018-10-07T22:08:49.885Z,55.95
2018-10-07T22:11:25.438Z,53.55
2018-10-07T22:14:01.181Z,40.08
2018-10-07T22:16:36.472Z,42.05
2018-10-07T22:19:12.517Z,49.88
2018-10-07T22:21:47.850Z,52.93
2018-10-07T22:24:23.219Z,54.93
2018-10-07T22:26:58.756Z,51.75
2018-10-07T22:29:34.192Z,58.38
2018-10-07T22:32:09.807Z,49.95
2018-10-07T22:34:45.464Z,32.93
2018-10-07T22:37:21.182Z,51.83
2018-10-07T22:39:56.557Z,22.45
2018-10-07T22:42:31.990Z,24.15
2018-10-07T22:45:07.632Z,61.08
2018-10-07T22:47:43.128Z,22.70
2018-10-07T22:50:18.663Z,48.73
2018-10-07T22:52:54.150Z,51.77
2018-10-07T22:55:29.707Z,51.88
2018-10-07T22:58:05.561Z,27.10
2018-10-07T23:00:41.143Z,32.88
2018-10-07T23:03:16.389Z,34.88
2018-10-07T23:05:51.821Z,39.05
2018-10-07T23:08:26.993Z,38.88
2018-10-07T23:11:02.309Z,44.60
2018-10-07T23:13:38.142Z,33.70
2018-10-07T23:16:13.492Z,24.60
2018-10-07T23:18:48.921Z,32.88
2018-10-07T23:21:24.740Z,41.68
2018-10-07T23:24:00.083Z,35.20
2018-10-07T23:26:35.545Z,26.37
2018-10-07T23:29:10.788Z,28.20
2018-10-07T23:31:46.478Z,31.10
2018-10-07T23:34:21.692Z,25.15
2018-10-07T23:36:57.345Z,30.60
2018-10-07T23:39:32.961Z,29.27
2018-10-07T23:42:08.673Z,39.40
2018-10-07T23:44:44.242Z,30.45
2018-10-07T23:47:19.780Z,36.63
2018-10-07T23:49:55.116Z,25.50
2018-10-07T23:52:30.675Z,22.58
2018-10-07T23:55:06.000Z,22.75
2018-10-07T23:57:41.436Z,17.82
